sensor_id;sensor_type;location;lat;lon;timestamp;temperature;humidity
68235;DHT22;55052;52.056;5.296;2023-02-28T00:00:37;2.00;74.70
68235;DHT22;55052;52.056;5.296;2023-02-28T00:03:04;1.90;74.80
68235;DHT22;55052;52.056;5.296;2023-02-28T00:05:31;1.90;74.90
68235;DHT22;55052;52.056;5.296;2023-02-28T00:07:58;1.90;75.00
68235;DHT22;55052;52.056;5.296;2023-02-28T00:10:27;1.90;75.00
68235;DHT22;55052;52.056;5.296;2023-02-28T00:12:56;1.90;75.10
68235;DHT22;55052;52.056;5.296;2023-02-28T00:15:26;1.90;75.10
68235;DHT22;55052;52.056;5.296;2023-02-28T00:17:53;1.90;75.20
68235;DHT22;55052;52.056;5.296;2023-02-28T00:20:20;1.80;75.20
68235;DHT22;55052;52.056;5.296;2023-02-28T00:22:49;1.90;75.40
68235;DHT22;55052;52.056;5.296;2023-02-28T00:25:19;1.90;75.40
68235;DHT22;55052;52.056;5.296;2023-02-28T00:27:47;1.90;75.50
68235;DHT22;55052;52.056;5.296;2023-02-28T00:30:19;1.90;75.70
68235;DHT22;55052;52.056;5.296;2023-02-28T00:32:47;1.90;75.70
68235;DHT22;55052;52.056;5.296;2023-02-28T00:35:14;1.90;75.80
68235;DHT22;55052;52.056;5.296;2023-02-28T00:37:41;1.90;75.80
68235;DHT22;55052;52.056;5.296;2023-02-28T00:40:09;2.00;75.90
68235;DHT22;55052;52.056;5.296;2023-02-28T00:42:37;2.00;76.00
68235;DHT22;55052;52.056;5.296;2023-02-28T00:45:05;2.00;76.10
68235;DHT22;55052;52.056;5.296;2023-02-28T00:47:32;2.00;76.20
68235;DHT22;55052;52.056;5.296;2023-02-28T00:49:59;2.10;76.30
68235;DHT22;55052;52.056;5.296;2023-02-28T00:52:26;2.10;76.30
68235;DHT22;55052;52.056;5.296;2023-02-28T00:54:54;2.10;76.30
68235;DHT22;55052;52.056;5.296;2023-02-28T00:57:21;2.20;76.40
68235;DHT22;55052;52.056;5.296;2023-02-28T00:59:48;2.20;76.30
68235;DHT22;55052;52.056;5.296;2023-02-28T01:02:15;2.30;76.40
68235;DHT22;55052;52.056;5.296;2023-02-28T01:04:42;2.30;76.40
68235;DHT22;55052;52.056;5.296;2023-02-28T01:07:09;2.30;76.50
68235;DHT22;55052;52.056;5.296;2023-02-28T01:09:35;2.40;76.60
68235;DHT22;55052;52.056;5.296;2023-02-28T01:12:02;2.40;76.60
68235;DHT22;55052;52.056;5.296;2023-02-28T01:14:29;2.50;76.70
68235;DHT22;55052;52.056;5.296;2023-02-28T01:16:56;2.50;76.80
68235;DHT22;55052;52.056;5.296;2023-02-28T01:19:23;2.50;76.80
68235;DHT22;55052;52.056;5.296;2023-02-28T01:21:49;2.50;76.80
68235;DHT22;55052;52.056;5.296;2023-02-28T01:24:16;2.60;76.90
68235;DHT22;55052;52.056;5.296;2023-02-28T01:26:43;2.60;76.90
68235;DHT22;55052;52.056;5.296;2023-02-28T01:29:09;2.70;77.00
68235;DHT22;55052;52.056;5.296;2023-02-28T01:31:36;2.70;77.00
68235;DHT22;55052;52.056;5.296;2023-02-28T01:34:03;2.70;77.00
68235;DHT22;55052;52.056;5.296;2023-02-28T01:36:30;2.80;77.10
68235;DHT22;55052;52.056;5.296;2023-02-28T01:38:57;2.80;77.10
68235;DHT22;55052;52.056;5.296;2023-02-28T01:41:27;2.80;77.20
68235;DHT22;55052;52.056;5.296;2023-02-28T01:43:56;2.90;77.30
68235;DHT22;55052;52.056;5.296;2023-02-28T01:46:23;2.90;77.20
68235;DHT22;55052;52.056;5.296;2023-02-28T01:48:54;3.00;77.30
68235;DHT22;55052;52.056;5.296;2023-02-28T01:51:29;3.00;77.40
68235;DHT22;55052;52.056;5.296;2023-02-28T01:54:03;3.00;77.40
68235;DHT22;55052;52.056;5.296;2023-02-28T01:56:33;3.10;77.50
68235;DHT22;55052;52.056;5.296;2023-02-28T01:59:03;3.10;77.50
68235;DHT22;55052;52.056;5.296;2023-02-28T02:01:30;3.10;77.50
68235;DHT22;55052;52.056;5.296;2023-02-28T02:04:01;3.20;77.60
68235;DHT22;55052;52.056;5.296;2023-02-28T02:06:52;3.20;77.60
68235;DHT22;55052;52.056;5.296;2023-02-28T02:09:17;3.20;77.70
68235;DHT22;55052;52.056;5.296;2023-02-28T02:11:45;3.30;77.70
68235;DHT22;55052;52.056;5.296;2023-02-28T02:17:20;3.30;77.70
68235;DHT22;55052;52.056;5.296;2023-02-28T02:25:23;3.40;77.70
68235;DHT22;55052;52.056;5.296;2023-02-28T02:36:33;3.50;77.80
68235;DHT22;55052;52.056;5.296;2023-02-28T02:39:36;3.50;77.80
68235;DHT22;55052;52.056;5.296;2023-02-28T02:42:14;3.50;77.80
68235;DHT22;55052;52.056;5.296;2023-02-28T02:44:51;3.50;77.80
68235;DHT22;55052;52.056;5.296;2023-02-28T02:47:23;3.60;77.80
68235;DHT22;55052;52.056;5.296;2023-02-28T02:49:55;3.60;77.80
68235;DHT22;55052;52.056;5.296;2023-02-28T02:52:23;3.60;77.90
68235;DHT22;55052;52.056;5.296;2023-02-28T02:54:52;3.60;78.00
68235;DHT22;55052;52.056;5.296;2023-02-28T02:57:30;3.60;77.90
68235;DHT22;55052;52.056;5.296;2023-02-28T02:59:59;3.60;77.90
68235;DHT22;55052;52.056;5.296;2023-02-28T03:02:28;3.60;77.90
68235;DHT22;55052;52.056;5.296;2023-02-28T03:05:04;3.60;78.00
68235;DHT22;55052;52.056;5.296;2023-02-28T03:07:32;3.60;78.00
68235;DHT22;55052;52.056;5.296;2023-02-28T03:09:59;3.70;78.00
68235;DHT22;55052;52.056;5.296;2023-02-28T03:12:41;3.70;78.00
68235;DHT22;55052;52.056;5.296;2023-02-28T03:15:27;3.70;77.90
68235;DHT22;55052;52.056;5.296;2023-02-28T03:18:08;3.70;77.90
68235;DHT22;55052;52.056;5.296;2023-02-28T03:21:00;3.70;77.90
68235;DHT22;55052;52.056;5.296;2023-02-28T03:23:41;3.70;78.00
68235;DHT22;55052;52.056;5.296;2023-02-28T03:26:29;3.70;78.00
68235;DHT22;55052;52.056;5.296;2023-02-28T03:29:15;3.80;78.10
68235;DHT22;55052;52.056;5.296;2023-02-28T03:34:59;3.70;78.10
68235;DHT22;55052;52.056;5.296;2023-02-28T03:37:28;3.70;78.10
68235;DHT22;55052;52.056;5.296;2023-02-28T03:40:08;3.70;78.10
68235;DHT22;55052;52.056;5.296;2023-02-28T03:42:36;3.70;78.20
68235;DHT22;55052;52.056;5.296;2023-02-28T03:45:10;3.80;78.20
68235;DHT22;55052;52.056;5.296;2023-02-28T03:50:21;3.70;78.30
68235;DHT22;55052;52.056;5.296;2023-02-28T03:53:03;3.80;78.30
68235;DHT22;55052;52.056;5.296;2023-02-28T03:55:46;3.80;78.40
68235;DHT22;55052;52.056;5.296;2023-02-28T04:01:49;3.80;78.40
68235;DHT22;55052;52.056;5.296;2023-02-28T04:04:13;3.80;78.40
68235;DHT22;55052;52.056;5.296;2023-02-28T04:06:42;3.80;78.50
68235;DHT22;55052;52.056;5.296;2023-02-28T04:09:13;3.80;78.50
68235;DHT22;55052;52.056;5.296;2023-02-28T04:14:09;3.80;78.70
68235;DHT22;55052;52.056;5.296;2023-02-28T04:16:38;3.80;78.70
68235;DHT22;55052;52.056;5.296;2023-02-28T04:19:07;3.80;78.80
68235;DHT22;55052;52.056;5.296;2023-02-28T04:21:40;3.80;78.80
68235;DHT22;55052;52.056;5.296;2023-02-28T04:24:12;3.90;79.70
68235;DHT22;55052;52.056;5.296;2023-02-28T04:26:45;3.90;78.90
68235;DHT22;55052;52.056;5.296;2023-02-28T04:29:17;3.90;79.00
68235;DHT22;55052;52.056;5.296;2023-02-28T04:31:44;3.90;79.10
68235;DHT22;55052;52.056;5.296;2023-02-28T04:34:11;3.90;79.00
68235;DHT22;55052;52.056;5.296;2023-02-28T04:36:38;3.90;78.90
68235;DHT22;55052;52.056;5.296;2023-02-28T04:39:05;3.90;78.80
68235;DHT22;55052;52.056;5.296;2023-02-28T04:41:32;3.90;78.70
68235;DHT22;55052;52.056;5.296;2023-02-28T04:43:59;3.90;78.50
68235;DHT22;55052;52.056;5.296;2023-02-28T04:46:26;3.90;78.50
68235;DHT22;55052;52.056;5.296;2023-02-28T04:48:53;3.90;78.30
68235;DHT22;55052;52.056;5.296;2023-02-28T04:51:20;3.90;78.30
68235;DHT22;55052;52.056;5.296;2023-02-28T04:53:48;3.90;78.10
68235;DHT22;55052;52.056;5.296;2023-02-28T04:56:16;3.90;78.00
68235;DHT22;55052;52.056;5.296;2023-02-28T04:58:43;3.90;77.90
68235;DHT22;55052;52.056;5.296;2023-02-28T05:01:26;3.90;77.80
68235;DHT22;55052;52.056;5.296;2023-02-28T05:03:55;3.90;77.70
68235;DHT22;55052;52.056;5.296;2023-02-28T05:06:24;3.90;77.70
68235;DHT22;55052;52.056;5.296;2023-02-28T05:08:52;3.90;77.60
68235;DHT22;55052;52.056;5.296;2023-02-28T05:11:22;3.90;77.50
68235;DHT22;55052;52.056;5.296;2023-02-28T05:13:50;3.90;77.50
68235;DHT22;55052;52.056;5.296;2023-02-28T05:16:17;3.90;77.50
68235;DHT22;55052;52.056;5.296;2023-02-28T05:18:45;3.80;77.60
68235;DHT22;55052;52.056;5.296;2023-02-28T05:23:53;3.80;77.80
68235;DHT22;55052;52.056;5.296;2023-02-28T05:26:20;3.80;77.80
68235;DHT22;55052;52.056;5.296;2023-02-28T05:28:47;3.80;77.80
68235;DHT22;55052;52.056;5.296;2023-02-28T05:31:14;3.80;77.90
68235;DHT22;55052;52.056;5.296;2023-02-28T05:33:41;3.80;77.90
68235;DHT22;55052;52.056;5.296;2023-02-28T05:36:08;3.70;78.00
68235;DHT22;55052;52.056;5.296;2023-02-28T05:38:34;3.70;78.10
68235;DHT22;55052;52.056;5.296;2023-02-28T05:41:08;3.70;78.20
68235;DHT22;55052;52.056;5.296;2023-02-28T05:43:36;3.70;78.20
68235;DHT22;55052;52.056;5.296;2023-02-28T05:46:08;3.70;78.30
68235;DHT22;55052;52.056;5.296;2023-02-28T05:48:37;3.60;78.40
68235;DHT22;55052;52.056;5.296;2023-02-28T05:51:05;3.70;78.40
68235;DHT22;55052;52.056;5.296;2023-02-28T05:53:32;3.60;78.40
68235;DHT22;55052;52.056;5.296;2023-02-28T05:55:59;3.60;78.40
68235;DHT22;55052;52.056;5.296;2023-02-28T05:58:26;3.60;78.50
68235;DHT22;55052;52.056;5.296;2023-02-28T06:01:00;3.60;78.50
68235;DHT22;55052;52.056;5.296;2023-02-28T06:03:27;3.50;78.50
68235;DHT22;55052;52.056;5.296;2023-02-28T06:05:54;3.50;78.60
68235;DHT22;55052;52.056;5.296;2023-02-28T06:08:21;3.50;78.70
68235;DHT22;55052;52.056;5.296;2023-02-28T06:10:48;3.50;78.70
68235;DHT22;55052;52.056;5.296;2023-02-28T06:13:15;3.50;78.70
68235;DHT22;55052;52.056;5.296;2023-02-28T06:15:42;3.50;78.90
68235;DHT22;55052;52.056;5.296;2023-02-28T06:18:09;3.50;78.90
68235;DHT22;55052;52.056;5.296;2023-02-28T06:20:35;3.40;78.90
68235;DHT22;55052;52.056;5.296;2023-02-28T06:23:03;3.40;79.00
68235;DHT22;55052;52.056;5.296;2023-02-28T06:25:30;3.40;79.00
68235;DHT22;55052;52.056;5.296;2023-02-28T06:27:57;3.40;79.10
68235;DHT22;55052;52.056;5.296;2023-02-28T06:30:23;3.40;79.30
68235;DHT22;55052;52.056;5.296;2023-02-28T06:32:54;3.40;79.30
68235;DHT22;55052;52.056;5.296;2023-02-28T06:35:21;3.30;79.30
68235;DHT22;55052;52.056;5.296;2023-02-28T06:37:48;3.30;79.40
68235;DHT22;55052;52.056;5.296;2023-02-28T06:40:15;3.30;79.60
68235;DHT22;55052;52.056;5.296;2023-02-28T06:42:42;3.30;79.60
68235;DHT22;55052;52.056;5.296;2023-02-28T06:45:10;3.20;79.70
68235;DHT22;55052;52.056;5.296;2023-02-28T06:47:39;3.20;79.80
68235;DHT22;55052;52.056;5.296;2023-02-28T06:50:11;3.20;79.80
68235;DHT22;55052;52.056;5.296;2023-02-28T06:52:38;3.20;80.00
68235;DHT22;55052;52.056;5.296;2023-02-28T06:55:06;3.20;80.00
68235;DHT22;55052;52.056;5.296;2023-02-28T06:57:35;3.20;80.20
68235;DHT22;55052;52.056;5.296;2023-02-28T07:00:06;3.20;80.20
68235;DHT22;55052;52.056;5.296;2023-02-28T07:02:37;3.20;80.30
68235;DHT22;55052;52.056;5.296;2023-02-28T07:05:05;3.20;80.40
68235;DHT22;55052;52.056;5.296;2023-02-28T07:07:32;3.20;80.60
68235;DHT22;55052;52.056;5.296;2023-02-28T07:09:59;3.20;80.60
68235;DHT22;55052;52.056;5.296;2023-02-28T07:12:25;3.20;80.70
68235;DHT22;55052;52.056;5.296;2023-02-28T07:14:52;3.20;80.90
68235;DHT22;55052;52.056;5.296;2023-02-28T07:17:21;3.20;80.90
68235;DHT22;55052;52.056;5.296;2023-02-28T07:19:47;3.20;80.90
68235;DHT22;55052;52.056;5.296;2023-02-28T07:22:14;3.30;81.00
68235;DHT22;55052;52.056;5.296;2023-02-28T07:24:41;3.30;81.00
68235;DHT22;55052;52.056;5.296;2023-02-28T07:27:08;3.30;81.00
68235;DHT22;55052;52.056;5.296;2023-02-28T07:29:35;3.30;81.00
68235;DHT22;55052;52.056;5.296;2023-02-28T07:32:01;3.30;81.00
68235;DHT22;55052;52.056;5.296;2023-02-28T07:34:28;3.30;81.00
68235;DHT22;55052;52.056;5.296;2023-02-28T07:36:55;3.30;81.10
68235;DHT22;55052;52.056;5.296;2023-02-28T07:39:22;3.30;81.10
68235;DHT22;55052;52.056;5.296;2023-02-28T07:41:49;3.30;81.10
68235;DHT22;55052;52.056;5.296;2023-02-28T07:44:16;3.40;81.40
68235;DHT22;55052;52.056;5.296;2023-02-28T07:46:43;3.40;81.40
68235;DHT22;55052;52.056;5.296;2023-02-28T07:49:10;3.40;81.50
68235;DHT22;55052;52.056;5.296;2023-02-28T07:51:36;3.50;81.50
68235;DHT22;55052;52.056;5.296;2023-02-28T07:54:04;3.50;81.50
68235;DHT22;55052;52.056;5.296;2023-02-28T07:56:31;3.50;81.60
68235;DHT22;55052;52.056;5.296;2023-02-28T07:58:58;3.60;81.70
68235;DHT22;55052;52.056;5.296;2023-02-28T08:01:25;3.60;81.70
68235;DHT22;55052;52.056;5.296;2023-02-28T08:03:52;3.60;81.70
68235;DHT22;55052;52.056;5.296;2023-02-28T08:06:22;3.70;81.80
68235;DHT22;55052;52.056;5.296;2023-02-28T08:08:50;3.70;81.90
68235;DHT22;55052;52.056;5.296;2023-02-28T08:11:17;3.80;82.00
68235;DHT22;55052;52.056;5.296;2023-02-28T08:13:45;3.80;81.90
68235;DHT22;55052;52.056;5.296;2023-02-28T08:16:13;3.90;82.10
68235;DHT22;55052;52.056;5.296;2023-02-28T08:18:44;3.90;82.10
68235;DHT22;55052;52.056;5.296;2023-02-28T08:21:11;4.00;82.30
68235;DHT22;55052;52.056;5.296;2023-02-28T08:23:38;4.00;82.20
68235;DHT22;55052;52.056;5.296;2023-02-28T08:26:05;4.00;82.30
68235;DHT22;55052;52.056;5.296;2023-02-28T08:28:32;4.10;82.20
68235;DHT22;55052;52.056;5.296;2023-02-28T08:30:59;4.10;82.20
68235;DHT22;55052;52.056;5.296;2023-02-28T08:33:27;4.20;82.10
68235;DHT22;55052;52.056;5.296;2023-02-28T08:35:57;4.20;81.90
68235;DHT22;55052;52.056;5.296;2023-02-28T08:38:24;4.20;81.90
68235;DHT22;55052;52.056;5.296;2023-02-28T08:41:01;4.30;81.80
68235;DHT22;55052;52.056;5.296;2023-02-28T08:43:28;4.30;81.70
68235;DHT22;55052;52.056;5.296;2023-02-28T08:45:56;4.30;81.50
68235;DHT22;55052;52.056;5.296;2023-02-28T08:48:28;4.40;81.40
68235;DHT22;55052;52.056;5.296;2023-02-28T08:51:00;4.40;81.20
68235;DHT22;55052;52.056;5.296;2023-02-28T08:53:35;4.40;81.10
68235;DHT22;55052;52.056;5.296;2023-02-28T08:56:08;4.40;80.90
68235;DHT22;55052;52.056;5.296;2023-02-28T08:58:35;4.50;80.80
68235;DHT22;55052;52.056;5.296;2023-02-28T09:01:29;4.50;80.60
68235;DHT22;55052;52.056;5.296;2023-02-28T09:03:57;4.50;80.50
68235;DHT22;55052;52.056;5.296;2023-02-28T09:06:25;4.60;80.50
68235;DHT22;55052;52.056;5.296;2023-02-28T09:08:56;4.60;80.00
68235;DHT22;55052;52.056;5.296;2023-02-28T09:11:25;4.60;80.20
68235;DHT22;55052;52.056;5.296;2023-02-28T09:13:51;4.60;79.60
68235;DHT22;55052;52.056;5.296;2023-02-28T09:16:19;4.70;79.50
68235;DHT22;55052;52.056;5.296;2023-02-28T09:18:45;4.70;79.20
68235;DHT22;55052;52.056;5.296;2023-02-28T09:21:14;4.80;79.00
68235;DHT22;55052;52.056;5.296;2023-02-28T09:23:47;4.80;79.50
68235;DHT22;55052;52.056;5.296;2023-02-28T09:26:19;4.90;78.60
68235;DHT22;55052;52.056;5.296;2023-02-28T09:28:46;4.90;78.20
68235;DHT22;55052;52.056;5.296;2023-02-28T09:31:16;5.00;77.80
68235;DHT22;55052;52.056;5.296;2023-02-28T09:33:43;5.10;77.30
68235;DHT22;55052;52.056;5.296;2023-02-28T09:36:10;5.10;76.70
68235;DHT22;55052;52.056;5.296;2023-02-28T09:38:37;5.20;75.30
68235;DHT22;55052;52.056;5.296;2023-02-28T09:41:11;5.20;74.70
68235;DHT22;55052;52.056;5.296;2023-02-28T09:43:43;5.20;73.50
68235;DHT22;55052;52.056;5.296;2023-02-28T09:48:52;5.30;72.00
68235;DHT22;55052;52.056;5.296;2023-02-28T09:51:37;5.40;71.50
68235;DHT22;55052;52.056;5.296;2023-02-28T09:54:16;5.40;70.20
68235;DHT22;55052;52.056;5.296;2023-02-28T10:05:24;5.50;68.00
68235;DHT22;55052;52.056;5.296;2023-02-28T10:08:07;5.60;67.90
68235;DHT22;55052;52.056;5.296;2023-02-28T10:10:41;5.60;68.00
68235;DHT22;55052;52.056;5.296;2023-02-28T10:13:46;5.70;67.60
68235;DHT22;55052;52.056;5.296;2023-02-28T10:16:31;5.70;66.40
68235;DHT22;55052;52.056;5.296;2023-02-28T10:19:09;5.70;65.80
68235;DHT22;55052;52.056;5.296;2023-02-28T10:21:47;5.80;65.80
68235;DHT22;55052;52.056;5.296;2023-02-28T10:24:23;5.90;65.80
68235;DHT22;55052;52.056;5.296;2023-02-28T10:27:00;6.00;65.70
68235;DHT22;55052;52.056;5.296;2023-02-28T10:29:31;6.10;65.30
68235;DHT22;55052;52.056;5.296;2023-02-28T10:32:02;6.20;65.40
68235;DHT22;55052;52.056;5.296;2023-02-28T10:34:29;6.20;64.50
68235;DHT22;55052;52.056;5.296;2023-02-28T10:36:56;6.30;63.50
68235;DHT22;55052;52.056;5.296;2023-02-28T10:39:41;6.40;64.20
68235;DHT22;55052;52.056;5.296;2023-02-28T10:42:29;6.40;63.60
68235;DHT22;55052;52.056;5.296;2023-02-28T10:45:12;6.50;62.80
68235;DHT22;55052;52.056;5.296;2023-02-28T10:48:48;6.50;62.10
68235;DHT22;55052;52.056;5.296;2023-02-28T10:59:30;6.50;61.60
68235;DHT22;55052;52.056;5.296;2023-02-28T11:01:57;6.50;60.90
68235;DHT22;55052;52.056;5.296;2023-02-28T11:07:20;6.50;60.50
68235;DHT22;55052;52.056;5.296;2023-02-28T11:09:54;6.50;60.10
68235;DHT22;55052;52.056;5.296;2023-02-28T11:12:32;6.50;60.30
68235;DHT22;55052;52.056;5.296;2023-02-28T11:17:57;6.50;59.40
68235;DHT22;55052;52.056;5.296;2023-02-28T11:20:28;6.50;59.40
68235;DHT22;55052;52.056;5.296;2023-02-28T11:22:56;6.50;59.20
68235;DHT22;55052;52.056;5.296;2023-02-28T11:25:34;6.50;59.10
68235;DHT22;55052;52.056;5.296;2023-02-28T11:28:05;6.50;59.00
68235;DHT22;55052;52.056;5.296;2023-02-28T11:30:41;6.50;59.00
68235;DHT22;55052;52.056;5.296;2023-02-28T11:36:13;6.50;58.90
68235;DHT22;55052;52.056;5.296;2023-02-28T11:38:40;6.50;58.70
68235;DHT22;55052;52.056;5.296;2023-02-28T11:43:40;6.60;58.80
68235;DHT22;55052;52.056;5.296;2023-02-28T11:57:35;6.70;57.40
68235;DHT22;55052;52.056;5.296;2023-02-28T12:03:22;6.80;57.10
68235;DHT22;55052;52.056;5.296;2023-02-28T12:12:11;6.80;56.20
68235;DHT22;55052;52.056;5.296;2023-02-28T12:15:05;6.80;56.50
68235;DHT22;55052;52.056;5.296;2023-02-28T12:17:43;6.90;55.90
68235;DHT22;55052;52.056;5.296;2023-02-28T12:28:53;7.00;55.10
68235;DHT22;55052;52.056;5.296;2023-02-28T12:31:24;7.00;54.90
68235;DHT22;55052;52.056;5.296;2023-02-28T12:33:53;7.00;55.40
68235;DHT22;55052;52.056;5.296;2023-02-28T12:36:23;7.10;55.10
68235;DHT22;55052;52.056;5.296;2023-02-28T12:39:12;7.10;54.80
68235;DHT22;55052;52.056;5.296;2023-02-28T12:41:49;7.10;55.00
68235;DHT22;55052;52.056;5.296;2023-02-28T12:44:35;7.10;54.60
68235;DHT22;55052;52.056;5.296;2023-02-28T12:47:11;7.10;54.30
68235;DHT22;55052;52.056;5.296;2023-02-28T12:49:56;7.10;54.50
68235;DHT22;55052;52.056;5.296;2023-02-28T12:52:35;7.20;54.60
68235;DHT22;55052;52.056;5.296;2023-02-28T13:00:22;7.20;54.00
68235;DHT22;55052;52.056;5.296;2023-02-28T13:06:11;7.20;53.60
68235;DHT22;55052;52.056;5.296;2023-02-28T13:09:04;7.20;54.10
68235;DHT22;55052;52.056;5.296;2023-02-28T13:11:48;7.30;53.90
68235;DHT22;55052;52.056;5.296;2023-02-28T13:14:36;7.30;54.20
68235;DHT22;55052;52.056;5.296;2023-02-28T13:17:10;7.30;53.80
68235;DHT22;55052;52.056;5.296;2023-02-28T13:19:44;7.40;53.80
68235;DHT22;55052;52.056;5.296;2023-02-28T13:22:35;7.40;53.70
68235;DHT22;55052;52.056;5.296;2023-02-28T13:27:50;7.40;53.40
68235;DHT22;55052;52.056;5.296;2023-02-28T13:33:33;7.40;53.50
68235;DHT22;55052;52.056;5.296;2023-02-28T13:36:10;7.40;53.30
68235;DHT22;55052;52.056;5.296;2023-02-28T13:38:45;7.50;53.00
68235;DHT22;55052;52.056;5.296;2023-02-28T13:49:31;7.60;52.80
68235;DHT22;55052;52.056;5.296;2023-02-28T13:55:28;7.60;52.70
68235;DHT22;55052;52.056;5.296;2023-02-28T13:58:27;7.70;52.60
68235;DHT22;55052;52.056;5.296;2023-02-28T14:06:53;7.70;52.00
68235;DHT22;55052;52.056;5.296;2023-02-28T14:09:37;7.80;52.40
68235;DHT22;55052;52.056;5.296;2023-02-28T14:18:23;7.80;51.90
68235;DHT22;55052;52.056;5.296;2023-02-28T14:20:57;7.90;51.80
68235;DHT22;55052;52.056;5.296;2023-02-28T14:26:45;8.00;51.90
68235;DHT22;55052;52.056;5.296;2023-02-28T14:29:45;8.00;51.60
68235;DHT22;55052;52.056;5.296;2023-02-28T14:38:06;8.40;51.30
68235;DHT22;55052;52.056;5.296;2023-02-28T14:40:34;8.70;52.40
68235;DHT22;55052;52.056;5.296;2023-02-28T14:43:04;9.00;52.40
68235;DHT22;55052;52.056;5.296;2023-02-28T14:45:33;9.30;51.70
68235;DHT22;55052;52.056;5.296;2023-02-28T14:48:05;9.60;51.30
68235;DHT22;55052;52.056;5.296;2023-02-28T14:50:37;9.80;50.70
68235;DHT22;55052;52.056;5.296;2023-02-28T14:53:06;9.90;50.40
68235;DHT22;55052;52.056;5.296;2023-02-28T14:55:45;10.10;50.50
68235;DHT22;55052;52.056;5.296;2023-02-28T15:00:51;10.30;49.70
68235;DHT22;55052;52.056;5.296;2023-02-28T15:03:23;10.50;49.90
68235;DHT22;55052;52.056;5.296;2023-02-28T15:06:02;10.70;49.60
68235;DHT22;55052;52.056;5.296;2023-02-28T15:08:30;11.00;49.60
68235;DHT22;55052;52.056;5.296;2023-02-28T15:13:38;11.40;49.10
68235;DHT22;55052;52.056;5.296;2023-02-28T15:16:46;11.60;49.20
68235;DHT22;55052;52.056;5.296;2023-02-28T15:19:21;11.80;48.90
68235;DHT22;55052;52.056;5.296;2023-02-28T15:21:56;11.90;48.30
68235;DHT22;55052;52.056;5.296;2023-02-28T15:24:40;12.00;48.30
68235;DHT22;55052;52.056;5.296;2023-02-28T15:27:27;12.00;48.00
68235;DHT22;55052;52.056;5.296;2023-02-28T15:30:08;11.90;47.70
68235;DHT22;55052;52.056;5.296;2023-02-28T15:32:37;11.80;48.00
68235;DHT22;55052;52.056;5.296;2023-02-28T15:37:52;11.60;46.60
68235;DHT22;55052;52.056;5.296;2023-02-28T15:40:28;11.50;46.60
68235;DHT22;55052;52.056;5.296;2023-02-28T15:43:22;11.30;46.10
68235;DHT22;55052;52.056;5.296;2023-02-28T15:46:04;11.20;45.80
68235;DHT22;55052;52.056;5.296;2023-02-28T15:48:53;11.00;46.00
68235;DHT22;55052;52.056;5.296;2023-02-28T15:51:25;10.90;46.10
68235;DHT22;55052;52.056;5.296;2023-02-28T15:53:59;10.80;46.70
68235;DHT22;55052;52.056;5.296;2023-02-28T15:56:35;10.70;46.50
68235;DHT22;55052;52.056;5.296;2023-02-28T15:59:12;10.50;46.60
68235;DHT22;55052;52.056;5.296;2023-02-28T16:01:40;10.40;47.20
68235;DHT22;55052;52.056;5.296;2023-02-28T16:04:15;10.40;47.20
68235;DHT22;55052;52.056;5.296;2023-02-28T16:07:00;10.30;47.00
68235;DHT22;55052;52.056;5.296;2023-02-28T16:09:27;10.30;47.20
68235;DHT22;55052;52.056;5.296;2023-02-28T16:11:59;10.20;47.20
68235;DHT22;55052;52.056;5.296;2023-02-28T16:14:28;10.10;46.90
68235;DHT22;55052;52.056;5.296;2023-02-28T16:17:05;10.10;46.60
68235;DHT22;55052;52.056;5.296;2023-02-28T16:19:33;10.00;47.00
68235;DHT22;55052;52.056;5.296;2023-02-28T16:22:00;9.90;47.00
68235;DHT22;55052;52.056;5.296;2023-02-28T16:24:27;9.90;46.70
68235;DHT22;55052;52.056;5.296;2023-02-28T16:26:55;9.80;47.10
68235;DHT22;55052;52.056;5.296;2023-02-28T16:29:30;9.70;46.80
68235;DHT22;55052;52.056;5.296;2023-02-28T16:31:57;9.70;46.60
68235;DHT22;55052;52.056;5.296;2023-02-28T16:34:25;9.60;46.40
68235;DHT22;55052;52.056;5.296;2023-02-28T16:36:52;9.50;46.40
68235;DHT22;55052;52.056;5.296;2023-02-28T16:39:19;9.40;46.30
68235;DHT22;55052;52.056;5.296;2023-02-28T16:41:50;9.20;46.40
68235;DHT22;55052;52.056;5.296;2023-02-28T16:44:37;9.10;46.40
68235;DHT22;55052;52.056;5.296;2023-02-28T16:47:04;9.00;46.70
68235;DHT22;55052;52.056;5.296;2023-02-28T16:49:31;8.90;46.50
68235;DHT22;55052;52.056;5.296;2023-02-28T16:51:58;8.70;46.80
68235;DHT22;55052;52.056;5.296;2023-02-28T16:54:25;8.60;47.20
68235;DHT22;55052;52.056;5.296;2023-02-28T16:56:51;8.50;47.40
68235;DHT22;55052;52.056;5.296;2023-02-28T16:59:22;8.40;47.60
68235;DHT22;55052;52.056;5.296;2023-02-28T17:01:51;8.30;47.80
68235;DHT22;55052;52.056;5.296;2023-02-28T17:04:18;8.20;48.10
68235;DHT22;55052;52.056;5.296;2023-02-28T17:06:45;8.10;48.20
68235;DHT22;55052;52.056;5.296;2023-02-28T17:09:23;8.10;48.10
68235;DHT22;55052;52.056;5.296;2023-02-28T17:12:07;8.00;48.20
68235;DHT22;55052;52.056;5.296;2023-02-28T17:14:34;7.80;48.40
68235;DHT22;55052;52.056;5.296;2023-02-28T17:17:01;7.70;48.70
68235;DHT22;55052;52.056;5.296;2023-02-28T17:19:28;7.60;48.90
68235;DHT22;55052;52.056;5.296;2023-02-28T17:21:55;7.60;49.10
68235;DHT22;55052;52.056;5.296;2023-02-28T17:24:22;7.50;49.30
68235;DHT22;55052;52.056;5.296;2023-02-28T17:26:56;7.40;49.50
68235;DHT22;55052;52.056;5.296;2023-02-28T17:29:23;7.30;49.80
68235;DHT22;55052;52.056;5.296;2023-02-28T17:31:51;7.20;50.00
68235;DHT22;55052;52.056;5.296;2023-02-28T17:34:18;7.10;50.20
68235;DHT22;55052;52.056;5.296;2023-02-28T17:36:47;7.00;50.40
68235;DHT22;55052;52.056;5.296;2023-02-28T17:39:15;6.90;50.60
68235;DHT22;55052;52.056;5.296;2023-02-28T17:41:46;6.80;50.70
68235;DHT22;55052;52.056;5.296;2023-02-28T17:44:13;6.70;51.00
68235;DHT22;55052;52.056;5.296;2023-02-28T17:46:40;6.60;51.10
68235;DHT22;55052;52.056;5.296;2023-02-28T17:49:08;6.50;51.30
68235;DHT22;55052;52.056;5.296;2023-02-28T17:51:36;6.40;51.50
68235;DHT22;55052;52.056;5.296;2023-02-28T17:54:03;6.30;51.60
68235;DHT22;55052;52.056;5.296;2023-02-28T17:56:29;6.30;51.90
68235;DHT22;55052;52.056;5.296;2023-02-28T17:58:57;6.20;52.20
68235;DHT22;55052;52.056;5.296;2023-02-28T18:01:24;6.10;52.40
68235;DHT22;55052;52.056;5.296;2023-02-28T18:03:55;6.00;52.60
68235;DHT22;55052;52.056;5.296;2023-02-28T18:06:37;5.90;52.80
68235;DHT22;55052;52.056;5.296;2023-02-28T18:09:13;5.80;53.00
68235;DHT22;55052;52.056;5.296;2023-02-28T18:11:40;5.70;53.20
68235;DHT22;55052;52.056;5.296;2023-02-28T18:14:15;5.60;53.40
68235;DHT22;55052;52.056;5.296;2023-02-28T18:16:42;5.50;53.60
68235;DHT22;55052;52.056;5.296;2023-02-28T18:19:10;5.40;53.70
68235;DHT22;55052;52.056;5.296;2023-02-28T18:21:44;5.30;53.90
68235;DHT22;55052;52.056;5.296;2023-02-28T18:24:12;5.30;54.30
68235;DHT22;55052;52.056;5.296;2023-02-28T18:26:39;5.20;54.50
68235;DHT22;55052;52.056;5.296;2023-02-28T18:29:06;5.10;54.60
68235;DHT22;55052;52.056;5.296;2023-02-28T18:31:33;5.10;54.90
68235;DHT22;55052;52.056;5.296;2023-02-28T18:34:00;5.00;55.10
68235;DHT22;55052;52.056;5.296;2023-02-28T18:36:27;4.90;55.30
68235;DHT22;55052;52.056;5.296;2023-02-28T18:38:55;4.80;55.50